Time;durP1;ratioP1;P1;durP2;ratioP2;P2;SDS_P1;SDS_P2;PMS_P1;PMS_P2;Temp;Humidity;BMP_temperature;BMP_pressure;BME280_temperature;BME280_humidity;BME280_pressure;Samples;Min_cycle;Max_cycle;Signal;HPM_P1;HPM_P2
2023/09/16 00:01:19;;;;;;;7.80;3.10;;;15.20;99.90;;;;;;5022482;28;20224;-70
2023/09/16 00:04:08;;;;;;;6.35;3.47;;;15.30;99.90;;;;;;5013211;28;20232;-71
2023/09/16 00:06:59;;;;;;;4.30;2.90;;;15.30;99.90;;;;;;5009446;28;20321;-70
2023/09/16 00:09:50;;;;;;;5.03;3.08;;;15.20;99.90;;;;;;5078896;27;20236;-68
2023/09/16 00:12:38;;;;;;;8.77;3.38;;;15.20;99.90;;;;;;5100959;27;20232;-70
2023/09/16 00:15:28;;;;;;;7.05;3.05;;;15.20;99.90;;;;;;5070352;27;20282;-69
2023/09/16 00:18:17;;;;;;;7.03;3.03;;;15.20;99.90;;;;;;5027224;27;20230;-69
2023/09/16 00:21:06;;;;;;;6.75;2.80;;;15.10;99.90;;;;;;4993481;28;20444;-69
2023/09/16 00:23:55;;;;;;;6.43;3.22;;;14.90;99.90;;;;;;5087459;27;20302;-70
2023/09/16 00:26:46;;;;;;;10.27;3.22;;;15.00;99.90;;;;;;5077891;27;20225;-69
2023/09/16 00:29:35;;;;;;;7.45;3.20;;;15.00;99.90;;;;;;5016554;27;20574;-70
2023/09/16 00:32:24;;;;;;;9.43;3.20;;;14.90;99.90;;;;;;5063514;27;20214;-71
2023/09/16 00:35:14;;;;;;;6.20;3.20;;;14.80;99.90;;;;;;5073729;28;20215;-70
2023/09/16 00:38:03;;;;;;;8.40;3.47;;;14.80;99.90;;;;;;5083973;28;20223;-70
2023/09/16 00:40:52;;;;;;;8.63;3.85;;;14.90;99.90;;;;;;5063663;28;20252;-69
2023/09/16 00:43:42;;;;;;;10.07;3.45;;;14.90;99.90;;;;;;5081702;28;21311;-68
2023/09/16 00:46:31;;;;;;;8.15;3.58;;;15.00;99.90;;;;;;5073000;28;20227;-69
2023/09/16 00:49:20;;;;;;;5.93;3.30;;;14.90;99.90;;;;;;5084990;28;20211;-69
2023/09/16 00:52:09;;;;;;;10.00;3.50;;;14.90;99.90;;;;;;5099108;27;20218;-67
2023/09/16 00:54:58;;;;;;;6.80;3.55;;;14.90;99.90;;;;;;5098537;27;20823;-70
2023/09/16 00:57:51;;;;;;;11.50;3.53;;;14.90;99.90;;;;;;5084730;27;20780;-70
2023/09/16 01:00:41;;;;;;;7.75;3.33;;;14.90;99.90;;;;;;5083272;27;20781;-68
2023/09/16 01:03:30;;;;;;;6.95;3.67;;;14.90;99.90;;;;;;5075634;28;20236;-69
2023/09/16 01:06:20;;;;;;;8.63;3.50;;;14.70;99.90;;;;;;5093229;28;20237;-69
2023/09/16 01:09:09;;;;;;;10.30;3.75;;;14.60;99.90;;;;;;5103838;27;20697;-69
2023/09/16 01:11:58;;;;;;;7.88;3.67;;;14.70;99.90;;;;;;5078471;28;20227;-68
2023/09/16 01:14:47;;;;;;;7.00;3.38;;;14.40;99.90;;;;;;5077055;28;20381;-69
2023/09/16 01:17:44;;;;;;;4.05;3.08;;;14.20;99.90;;;;;;5087952;28;20789;-70
2023/09/16 01:20:34;;;;;;;8.75;3.22;;;14.40;99.90;;;;;;5080259;28;20785;-70
2023/09/16 01:23:23;;;;;;;9.80;4.18;;;14.40;99.90;;;;;;5091547;28;20222;-72
2023/09/16 01:26:16;;;;;;;8.40;3.60;;;14.30;99.90;;;;;;5095386;27;20994;-70
2023/09/16 01:29:04;;;;;;;9.45;3.85;;;14.50;99.90;;;;;;5095582;27;20226;-71
2023/09/16 01:31:58;;;;;;;8.18;4.07;;;14.50;99.90;;;;;;5097279;27;20306;-71
2023/09/16 01:34:51;;;;;;;10.10;3.28;;;14.10;99.90;;;;;;5095074;27;20686;-71
2023/09/16 01:37:43;;;;;;;7.85;3.45;;;13.90;99.90;;;;;;5091768;28;20288;-69
2023/09/16 01:40:33;;;;;;;7.68;3.08;;;13.90;99.90;;;;;;5075699;28;20227;-69
2023/09/16 01:43:25;;;;;;;6.13;3.55;;;14.10;99.90;;;;;;5081721;28;20736;-71
2023/09/16 01:46:17;;;;;;;6.32;3.42;;;14.30;99.90;;;;;;5092132;28;20214;-70
2023/09/16 01:49:05;;;;;;;11.52;3.63;;;14.30;99.90;;;;;;5083608;27;20266;-70
2023/09/16 01:51:54;;;;;;;11.10;3.78;;;14.30;99.90;;;;;;5080109;28;20307;-69
2023/09/16 01:54:43;;;;;;;8.23;4.00;;;14.30;99.90;;;;;;5079940;28;20226;-71
2023/09/16 01:57:33;;;;;;;8.32;3.70;;;14.30;99.90;;;;;;5083170;28;20310;-70
2023/09/16 02:00:23;;;;;;;9.07;3.55;;;14.20;99.90;;;;;;5078957;28;20230;-72
2023/09/16 02:03:12;;;;;;;12.15;4.07;;;14.30;99.90;;;;;;5092132;28;20734;-70
2023/09/16 02:06:01;;;;;;;12.82;3.80;;;14.10;99.90;;;;;;5072374;28;20226;-72
2023/09/16 02:08:49;;;;;;;5.95;3.50;;;14.00;99.90;;;;;;5090850;28;20226;-72
2023/09/16 02:11:39;;;;;;;9.23;3.72;;;14.00;99.90;;;;;;5092833;27;20239;-71
2023/09/16 02:14:28;;;;;;;6.22;3.40;;;14.20;99.90;;;;;;5092468;28;20717;-72
2023/09/16 02:17:18;;;;;;;8.40;3.95;;;14.20;99.90;;;;;;5082696;28;20211;-71
2023/09/16 02:20:11;;;;;;;7.55;4.13;;;14.20;99.90;;;;;;5078705;28;20222;-69
2023/09/16 02:22:59;;;;;;;7.43;3.67;;;14.20;99.90;;;;;;5085018;28;20318;-69
2023/09/16 02:25:48;;;;;;;8.15;3.78;;;14.10;99.90;;;;;;5077259;28;20247;-70
2023/09/16 02:28:39;;;;;;;8.27;3.70;;;14.00;99.90;;;;;;5082746;28;20271;-71
2023/09/16 02:31:28;;;;;;;7.00;3.90;;;13.90;99.90;;;;;;5044738;28;20227;-72
2023/09/16 02:34:22;;;;;;;9.45;3.42;;;13.80;99.90;;;;;;4994313;28;20345;-71
2023/09/16 02:37:13;;;;;;;7.30;4.30;;;13.80;99.90;;;;;;4990151;28;20217;-70
2023/09/16 02:40:02;;;;;;;7.95;3.70;;;13.80;99.90;;;;;;4986232;28;20238;-71
2023/09/16 02:42:51;;;;;;;5.50;3.80;;;13.90;99.90;;;;;;5006629;28;20894;-71
2023/09/16 02:45:41;;;;;;;6.97;3.83;;;13.90;99.90;;;;;;4985975;28;20635;-70
2023/09/16 02:48:29;;;;;;;6.22;3.42;;;13.90;99.90;;;;;;5022761;27;20253;-71
2023/09/16 02:51:21;;;;;;;10.75;4.22;;;13.70;99.90;;;;;;5068452;28;20723;-71
2023/09/16 02:54:11;;;;;;;8.98;3.70;;;13.80;99.90;;;;;;5071461;27;21018;-72
2023/09/16 02:56:59;;;;;;;7.90;4.03;;;13.50;99.90;;;;;;4985948;28;20318;-70
2023/09/16 02:59:48;;;;;;;9.35;3.90;;;13.70;99.90;;;;;;5025500;28;20279;-69
2023/09/16 03:02:37;;;;;;;8.40;3.92;;;13.70;99.90;;;;;;4980235;28;20218;-71
2023/09/16 03:05:29;;;;;;;8.85;3.92;;;13.80;99.90;;;;;;5016376;27;20242;-69
2023/09/16 03:08:20;;;;;;;10.45;3.88;;;13.70;99.90;;;;;;4977223;28;20265;-69
2023/09/16 03:11:09;;;;;;;6.07;3.42;;;13.60;99.90;;;;;;4992283;28;20222;-71
2023/09/16 03:13:58;;;;;;;6.35;3.97;;;13.70;99.90;;;;;;5064889;28;20229;-71
2023/09/16 03:16:48;;;;;;;7.93;4.05;;;13.70;99.90;;;;;;5077957;28;20330;-72
2023/09/16 03:19:37;;;;;;;9.52;4.00;;;13.60;99.90;;;;;;5088266;28;20230;-71
2023/09/16 03:22:27;;;;;;;11.95;4.15;;;13.60;99.90;;;;;;5093967;28;20230;-70
2023/09/16 03:25:19;;;;;;;6.75;3.88;;;13.60;99.90;;;;;;5045012;28;20222;-71
2023/09/16 03:28:08;;;;;;;6.75;3.60;;;13.60;99.90;;;;;;5003051;28;20258;-71
2023/09/16 03:30:57;;;;;;;11.02;4.20;;;13.50;99.90;;;;;;5001115;28;20247;-72
2023/09/16 03:33:47;;;;;;;6.75;3.47;;;13.50;99.90;;;;;;5055294;27;20222;-69
2023/09/16 03:36:35;;;;;;;5.55;3.78;;;13.50;99.90;;;;;;5056971;27;20320;-70
2023/09/16 03:39:24;;;;;;;6.72;3.72;;;13.40;99.90;;;;;;5014996;28;20217;-71
2023/09/16 03:42:15;;;;;;;10.13;4.13;;;13.50;99.90;;;;;;5011321;28;20218;-71
2023/09/16 03:45:05;;;;;;;6.63;4.05;;;13.50;99.90;;;;;;5068278;27;21101;-71
2023/09/16 03:48:11;;;;;;;8.82;4.03;;;13.60;99.90;;;;;;5011221;28;20222;-71
2023/09/16 03:51:00;;;;;;;13.02;4.75;;;13.50;99.90;;;;;;5013552;27;20792;-71
2023/09/16 03:53:49;;;;;;;9.48;4.20;;;13.40;99.90;;;;;;4991599;28;20230;-70
2023/09/16 03:56:38;;;;;;;9.77;4.75;;;13.30;99.90;;;;;;4996956;28;20233;-71
2023/09/16 03:59:29;;;;;;;9.50;4.20;;;13.50;99.90;;;;;;4990563;28;20597;-72
2023/09/16 04:02:18;;;;;;;10.85;4.55;;;13.60;99.90;;;;;;5076911;27;20881;-71
2023/09/16 04:05:08;;;;;;;10.00;4.15;;;13.60;99.90;;;;;;4993318;28;20230;-72
2023/09/16 04:07:58;;;;;;;11.27;4.10;;;13.50;99.90;;;;;;5014032;28;20220;-69
2023/09/16 04:10:46;;;;;;;7.80;4.07;;;13.50;99.90;;;;;;5038334;27;20244;-72
2023/09/16 04:13:35;;;;;;;9.20;4.35;;;13.40;99.90;;;;;;5020869;27;20717;-72
2023/09/16 04:16:27;;;;;;;7.03;4.05;;;13.40;99.90;;;;;;5083145;27;20222;-66
2023/09/16 04:19:17;;;;;;;6.93;4.28;;;13.40;99.90;;;;;;5015380;27;20729;-70
2023/09/16 04:22:05;;;;;;;8.95;4.18;;;13.30;99.90;;;;;;4991910;28;20238;-71
2023/09/16 04:24:54;;;;;;;8.75;4.35;;;13.40;99.90;;;;;;5051768;27;20236;-71
2023/09/16 04:27:43;;;;;;;8.25;3.97;;;13.30;99.90;;;;;;5001817;28;20226;-71
2023/09/16 04:30:35;;;;;;;6.80;4.22;;;13.50;99.90;;;;;;5008697;28;20248;-72
2023/09/16 04:33:25;;;;;;;9.90;4.38;;;13.50;99.90;;;;;;5005550;28;20306;-70
2023/09/16 04:36:14;;;;;;;5.32;3.47;;;13.40;99.90;;;;;;5058233;28;20228;-69
2023/09/16 04:39:04;;;;;;;7.75;3.95;;;13.40;99.90;;;;;;5072602;27;20218;-71
2023/09/16 04:41:53;;;;;;;6.68;3.67;;;13.50;99.90;;;;;;5014319;28;20720;-69
2023/09/16 04:44:44;;;;;;;6.40;4.30;;;13.60;99.90;;;;;;5068495;28;20621;-72
2023/09/16 04:47:34;;;;;;;8.43;4.20;;;13.20;99.90;;;;;;5070158;27;20246;-70
2023/09/16 04:50:28;;;;;;;8.20;4.18;;;13.40;99.90;;;;;;5074990;28;20987;-70
2023/09/16 04:53:17;;;;;;;9.23;4.50;;;13.40;99.90;;;;;;5100511;27;20854;-69
2023/09/16 04:56:08;;;;;;;7.93;4.15;;;13.50;99.90;;;;;;5091790;28;20253;-71
2023/09/16 04:59:03;;;;;;;6.78;4.13;;;13.60;99.90;;;;;;5076474;28;20310;-70
2023/09/16 05:01:52;;;;;;;8.88;4.55;;;13.50;99.90;;;;;;5076069;28;20219;-70
2023/09/16 05:04:41;;;;;;;8.10;4.65;;;13.70;99.90;;;;;;5011138;28;20246;-70
2023/09/16 05:07:34;;;;;;;13.60;5.03;;;13.80;99.90;;;;;;5009664;28;20253;-70
2023/09/16 05:10:23;;;;;;;9.25;4.38;;;13.80;99.90;;;;;;5064051;28;20223;-70
2023/09/16 05:13:12;;;;;;;9.25;4.63;;;13.80;99.90;;;;;;5067837;28;20222;-68
2023/09/16 05:16:03;;;;;;;7.93;4.40;;;13.90;99.90;;;;;;5011382;28;20254;-70
2023/09/16 05:18:52;;;;;;;9.25;4.70;;;13.70;99.90;;;;;;5065368;28;20230;-67
2023/09/16 05:21:42;;;;;;;10.68;4.55;;;13.50;99.90;;;;;;5021930;28;21040;-67
2023/09/16 05:24:33;;;;;;;9.25;4.70;;;13.50;99.90;;;;;;5068168;28;20551;-69
2023/09/16 05:27:23;;;;;;;8.60;4.35;;;13.50;99.90;;;;;;5065284;28;20234;-69
2023/09/16 05:30:13;;;;;;;7.50;4.45;;;13.50;99.90;;;;;;5000889;28;20223;-69
2023/09/16 05:33:03;;;;;;;12.63;5.10;;;13.60;99.90;;;;;;5105286;27;20280;-71
2023/09/16 05:35:52;;;;;;;10.07;4.82;;;13.30;99.90;;;;;;5036389;27;20804;-70
2023/09/16 05:38:42;;;;;;;7.78;4.53;;;13.20;99.90;;;;;;5036434;27;20222;-72
2023/09/16 05:41:35;;;;;;;8.90;4.65;;;13.10;99.90;;;;;;5109456;27;20229;-68
2023/09/16 05:44:23;;;;;;;7.30;4.72;;;13.20;99.90;;;;;;5108340;27;20321;-70
2023/09/16 05:47:14;;;;;;;8.85;4.30;;;13.20;99.90;;;;;;5078720;27;20228;-68
2023/09/16 05:50:04;;;;;;;10.75;4.68;;;13.40;99.90;;;;;;5037030;27;20237;-67
2023/09/16 05:52:53;;;;;;;8.77;4.63;;;13.20;99.90;;;;;;5105595;27;20818;-70
2023/09/16 05:55:42;;;;;;;7.90;4.15;;;13.40;99.90;;;;;;5113364;27;20705;-70
2023/09/16 05:58:34;;;;;;;7.22;4.28;;;13.50;99.90;;;;;;5014463;27;20266;-69
2023/09/16 06:01:24;;;;;;;7.82;4.82;;;13.90;99.90;;;;;;5067035;28;20233;-70
2023/09/16 06:04:14;;;;;;;8.85;4.55;;;14.00;99.90;;;;;;5070965;27;20230;-71
2023/09/16 06:07:03;;;;;;;10.70;4.47;;;13.90;99.90;;;;;;5080456;27;20229;-72
2023/09/16 06:09:52;;;;;;;8.73;4.50;;;14.00;99.90;;;;;;5062386;27;20253;-71
2023/09/16 06:12:40;;;;;;;6.93;4.78;;;14.20;99.90;;;;;;5108112;27;20237;-72
2023/09/16 06:15:31;;;;;;;8.18;4.50;;;14.10;99.90;;;;;;5115645;27;20227;-72
2023/09/16 06:18:20;;;;;;;8.20;4.85;;;14.20;99.90;;;;;;5111934;27;20218;-72
2023/09/16 06:21:09;;;;;;;8.98;4.13;;;14.20;99.90;;;;;;5029114;27;20220;-73
2023/09/16 06:23:59;;;;;;;7.90;4.47;;;14.50;99.90;;;;;;5008511;28;20217;-71
2023/09/16 06:26:48;;;;;;;7.78;4.47;;;14.30;99.90;;;;;;5074042;27;20312;-71
2023/09/16 06:29:37;;;;;;;8.10;3.90;;;14.40;99.90;;;;;;5020381;28;20321;-71
2023/09/16 06:32:27;;;;;;;6.55;4.22;;;14.70;99.90;;;;;;5094967;27;20230;-71
2023/09/16 06:35:17;;;;;;;11.63;4.40;;;14.90;99.90;;;;;;5031918;27;20210;-71
2023/09/16 06:38:07;;;;;;;7.03;4.70;;;15.00;99.90;;;;;;5057145;27;20275;-71
2023/09/16 06:40:55;;;;;;;7.85;4.40;;;15.20;99.90;;;;;;5114232;27;20357;-72
2023/09/16 06:43:44;;;;;;;6.78;4.03;;;15.20;99.90;;;;;;5036791;27;20229;-71
2023/09/16 06:46:40;;;;;;;5.40;3.97;;;15.30;99.90;;;;;;5007397;28;20226;-70
2023/09/16 06:49:31;;;;;;;6.30;4.07;;;15.40;99.90;;;;;;5015388;28;20281;-69
2023/09/16 06:52:19;;;;;;;9.77;4.88;;;15.50;99.90;;;;;;5023106;28;20316;-70
2023/09/16 06:55:09;;;;;;;9.73;4.65;;;15.50;99.90;;;;;;5074938;27;20226;-72
2023/09/16 06:57:58;;;;;;;7.22;4.30;;;15.40;99.90;;;;;;5026307;28;20221;-71
2023/09/16 07:00:47;;;;;;;6.32;4.00;;;15.40;99.90;;;;;;5011291;28;20278;-69
2023/09/16 07:03:37;;;;;;;7.53;3.75;;;15.50;99.90;;;;;;5006700;28;20210;-70
2023/09/16 07:06:27;;;;;;;7.57;4.22;;;15.70;99.90;;;;;;5007701;28;20712;-68
2023/09/16 07:09:16;;;;;;;8.70;4.32;;;15.80;99.90;;;;;;5016858;27;20225;-70
2023/09/16 07:12:07;;;;;;;5.65;3.92;;;15.90;99.90;;;;;;5012904;28;20711;-71
2023/09/16 07:14:55;;;;;;;5.85;3.83;;;16.00;99.90;;;;;;5086547;27;20390;-70
2023/09/16 07:17:44;;;;;;;5.38;3.25;;;16.10;99.90;;;;;;4996883;28;20217;-72
2023/09/16 07:20:33;;;;;;;5.07;3.70;;;16.20;99.90;;;;;;5028217;28;20291;-72
2023/09/16 07:23:24;;;;;;;5.53;3.65;;;16.40;99.90;;;;;;5023392;28;20215;-73
2023/09/16 07:26:14;;;;;;;7.68;3.80;;;16.40;99.90;;;;;;5030731;28;20813;-73
2023/09/16 07:29:02;;;;;;;6.93;3.55;;;16.70;99.90;;;;;;5077382;27;20308;-72
2023/09/16 07:31:51;;;;;;;8.77;3.33;;;17.10;99.90;;;;;;5116966;27;20614;-73
2023/09/16 07:34:40;;;;;;;5.47;3.58;;;17.50;99.90;;;;;;5051096;27;20226;-73
2023/09/16 07:37:29;;;;;;;4.40;3.70;;;17.90;99.90;;;;;;5011555;28;20269;-74
2023/09/16 07:40:19;;;;;;;7.88;3.85;;;18.30;99.90;;;;;;5055239;27;20956;-73
2023/09/16 07:43:11;;;;;;;7.93;3.88;;;18.60;99.90;;;;;;5086050;27;20229;-72
2023/09/16 07:46:00;;;;;;;8.23;3.50;;;18.80;99.90;;;;;;5106032;27;20478;-72
2023/09/16 07:48:49;;;;;;;7.40;3.40;;;18.90;99.90;;;;;;5073187;27;20309;-71
2023/09/16 07:51:40;;;;;;;8.98;4.78;;;19.20;99.90;;;;;;5010024;28;20289;-73
2023/09/16 07:54:29;;;;;;;6.60;2.92;;;19.40;99.90;;;;;;5090402;27;20229;-73
2023/09/16 07:57:20;;;;;;;5.85;3.08;;;19.60;99.90;;;;;;5009493;28;20221;-73
2023/09/16 08:00:10;;;;;;;6.25;3.30;;;19.70;99.90;;;;;;5048658;27;20313;-72
2023/09/16 08:02:59;;;;;;;6.07;3.00;;;19.90;99.90;;;;;;5043063;27;20267;-73
2023/09/16 08:05:50;;;;;;;5.55;3.15;;;20.20;99.90;;;;;;5110929;27;20696;-74
2023/09/16 08:08:38;;;;;;;5.10;3.08;;;20.60;99.90;;;;;;5110666;27;20245;-73
2023/09/16 08:11:28;;;;;;;6.20;3.05;;;21.00;99.90;;;;;;5114674;27;20222;-74
2023/09/16 08:14:19;;;;;;;5.38;3.60;;;21.30;99.90;;;;;;5114872;27;20223;-74
2023/09/16 08:17:08;;;;;;;5.22;3.47;;;21.50;99.90;;;;;;5117292;27;20229;-73
2023/09/16 08:19:56;;;;;;;4.78;3.03;;;21.40;99.90;;;;;;5116145;27;20298;-74
2023/09/16 08:22:45;;;;;;;6.15;2.95;;;21.60;99.90;;;;;;5117291;27;20562;-73
2023/09/16 08:25:34;;;;;;;5.53;3.03;;;21.60;99.90;;;;;;5124274;27;20233;-72
2023/09/16 08:28:24;;;;;;;5.78;3.22;;;21.70;99.90;;;;;;5109167;27;20413;-74
2023/09/16 08:31:14;;;;;;;4.13;2.72;;;22.00;99.90;;;;;;5109068;27;20238;-73
2023/09/16 08:34:03;;;;;;;3.88;2.70;;;22.60;99.90;;;;;;5004797;28;20722;-73
2023/09/16 08:36:52;;;;;;;6.85;2.80;;;23.30;99.90;;;;;;5081162;27;21017;-74
2023/09/16 08:39:41;;;;;;;7.28;3.13;;;23.80;99.90;;;;;;5013321;27;20230;-73
2023/09/16 08:42:36;;;;;;;3.95;2.72;;;24.10;99.90;;;;;;5011481;28;20263;-72
2023/09/16 08:45:30;;;;;;;4.18;3.03;;;24.50;99.90;;;;;;5008717;28;20225;-72
2023/09/16 08:48:26;;;;;;;3.45;2.60;;;24.80;99.90;;;;;;5075638;28;20218;-71
2023/09/16 08:51:20;;;;;;;3.50;2.30;;;25.00;97.40;;;;;;5108309;27;20246;-71
2023/09/16 08:54:12;;;;;;;5.38;2.75;;;24.40;90.30;;;;;;5077883;27;20280;-71
2023/09/16 08:57:01;;;;;;;5.25;2.50;;;24.60;97.20;;;;;;5048081;28;20232;-73
2023/09/16 08:59:53;;;;;;;4.97;3.00;;;24.70;80.20;;;;;;5074666;27;20239;-71
2023/09/16 09:02:43;;;;;;;6.93;2.78;;;24.70;55.10;;;;;;4998818;28;20333;-73
2023/09/16 09:05:35;;;;;;;4.72;2.83;;;24.60;68.20;;;;;;4997929;28;20716;-73
2023/09/16 09:08:28;;;;;;;5.65;2.50;;;24.40;78.70;;;;;;5004196;28;20329;-74
2023/09/16 09:11:18;;;;;;;5.45;2.80;;;23.30;77.70;;;;;;4999284;28;20221;-71
2023/09/16 09:14:09;;;;;;;4.15;2.47;;;22.60;99.90;;;;;;5070937;27;20306;-71
2023/09/16 09:17:00;;;;;;;6.13;2.85;;;22.20;99.90;;;;;;5008090;27;20226;-71
2023/09/16 09:19:51;;;;;;;3.97;2.63;;;21.90;99.90;;;;;;5045513;28;20235;-73
2023/09/16 09:22:41;;;;;;;7.57;2.88;;;21.50;99.90;;;;;;5014076;28;20237;-72
2023/09/16 09:25:31;;;;;;;5.07;2.70;;;21.30;99.90;;;;;;5091367;27;20321;-73
2023/09/16 09:28:20;;;;;;;5.18;2.60;;;21.30;99.90;;;;;;5096428;27;20221;-73
2023/09/16 09:31:11;;;;;;;3.42;2.65;;;21.20;99.90;;;;;;5040747;27;20545;-72
2023/09/16 09:34:00;;;;;;;3.10;2.65;;;20.80;99.90;;;;;;5038676;27;20230;-72
2023/09/16 09:36:50;;;;;;;4.18;2.58;;;20.80;99.90;;;;;;5034539;27;20224;-73
2023/09/16 09:39:41;;;;;;;3.17;2.65;;;20.60;99.90;;;;;;5018571;28;20222;-72
2023/09/16 09:42:30;;;;;;;5.32;2.60;;;20.60;99.90;;;;;;5016960;27;20276;-73
2023/09/16 09:45:22;;;;;;;5.68;3.05;;;20.50;99.90;;;;;;5024632;27;20287;-72
2023/09/16 09:48:11;;;;;;;5.18;2.63;;;20.40;99.90;;;;;;5089059;27;20267;-72
2023/09/16 09:51:01;;;;;;;5.35;2.63;;;20.40;99.90;;;;;;5115087;27;20360;-72
2023/09/16 09:53:50;;;;;;;5.72;3.55;;;20.40;99.90;;;;;;5034015;27;20249;-72
2023/09/16 09:56:42;;;;;;;5.90;2.72;;;20.30;99.90;;;;;;5096890;27;20410;-72
2023/09/16 09:59:31;;;;;;;4.38;2.67;;;20.40;99.90;;;;;;5094242;27;20325;-74
2023/09/16 10:02:23;;;;;;;4.40;2.53;;;20.30;99.90;;;;;;5058784;27;20802;-72
2023/09/16 10:05:16;;;;;;;3.53;2.78;;;20.40;99.90;;;;;;5010267;28;20230;-71
2023/09/16 10:08:06;;;;;;;2.83;2.42;;;20.40;99.90;;;;;;5011525;28;20602;-71
2023/09/16 10:10:57;;;;;;;4.18;2.78;;;20.40;99.90;;;;;;5051238;27;20492;-73
2023/09/16 10:13:48;;;;;;;4.72;2.58;;;20.40;99.90;;;;;;5116248;27;20418;-72
2023/09/16 10:16:38;;;;;;;5.07;2.88;;;20.50;99.90;;;;;;5106423;27;20222;-71
2023/09/16 10:19:28;;;;;;;4.72;2.70;;;20.50;99.90;;;;;;5103146;27;20277;-71
2023/09/16 10:22:18;;;;;;;5.32;2.80;;;20.50;99.90;;;;;;5079408;27;20245;-70
2023/09/16 10:25:07;;;;;;;4.63;2.58;;;20.60;99.90;;;;;;5025539;28;20218;-71
2023/09/16 10:28:00;;;;;;;3.28;2.40;;;20.40;99.90;;;;;;5041333;28;20579;-71
2023/09/16 10:30:51;;;;;;;5.50;2.72;;;20.50;99.90;;;;;;5112420;28;20218;-71
2023/09/16 10:33:41;;;;;;;4.82;2.88;;;20.50;99.90;;;;;;5111401;27;20221;-74
2023/09/16 10:36:32;;;;;;;5.63;2.65;;;20.50;99.90;;;;;;5120012;27;20816;-73
2023/09/16 10:39:23;;;;;;;6.15;2.90;;;20.60;99.90;;;;;;5107795;28;20218;-70
2023/09/16 10:42:16;;;;;;;3.53;2.80;;;20.70;99.90;;;;;;4998258;28;20222;-71
2023/09/16 10:45:10;;;;;;;8.68;2.58;;;20.70;99.90;;;;;;5123805;27;20280;-71
2023/09/16 10:48:01;;;;;;;5.68;3.15;;;20.70;99.90;;;;;;5054160;27;20225;-72
2023/09/16 10:50:56;;;;;;;6.65;2.88;;;20.60;99.90;;;;;;5001602;28;20970;-72
2023/09/16 10:53:51;;;;;;;3.10;2.70;;;20.80;99.90;;;;;;5018195;28;20221;-70
2023/09/16 10:56:44;;;;;;;4.82;2.75;;;20.80;99.90;;;;;;5013713;28;20217;-70
2023/09/16 10:59:35;;;;;;;5.55;2.67;;;20.80;99.90;;;;;;5101852;27;20248;-72
2023/09/16 11:02:33;;;;;;;3.92;2.72;;;20.90;99.90;;;;;;5009303;27;20791;-71
2023/09/16 11:05:25;;;;;;;6.15;2.70;;;20.80;99.90;;;;;;5015026;27;20220;-71
2023/09/16 11:08:14;;;;;;;5.70;2.33;;;20.90;99.90;;;;;;5092972;27;20577;-72
2023/09/16 11:11:03;;;;;;;5.75;2.70;;;20.90;99.90;;;;;;4999572;28;20717;-71
2023/09/16 11:13:53;;;;;;;5.18;2.75;;;21.00;99.90;;;;;;5012780;28;20233;-72
2023/09/16 11:16:45;;;;;;;7.40;2.60;;;20.80;99.90;;;;;;5019063;27;20224;-71
2023/09/16 11:19:37;;;;;;;3.78;2.78;;;20.90;99.90;;;;;;5000305;28;20286;-71
2023/09/16 11:22:29;;;;;;;4.07;2.53;;;21.00;99.90;;;;;;5014072;28;20551;-72
2023/09/16 11:25:19;;;;;;;3.42;2.88;;;21.10;99.90;;;;;;4994773;27;20255;-72
2023/09/16 11:28:12;;;;;;;3.60;2.67;;;21.10;99.90;;;;;;5072047;27;20229;-72
2023/09/16 11:31:02;;;;;;;4.93;2.42;;;21.00;99.90;;;;;;5043126;27;20737;-71
2023/09/16 11:34:00;;;;;;;4.18;2.65;;;21.10;99.90;;;;;;5047069;27;20229;-72
2023/09/16 11:36:51;;;;;;;3.03;2.30;;;21.10;99.90;;;;;;5035680;28;20267;-70
2023/09/16 11:39:43;;;;;;;4.68;2.50;;;21.10;99.90;;;;;;5013520;28;20223;-71
2023/09/16 11:42:33;;;;;;;4.75;2.40;;;21.20;99.90;;;;;;5001839;28;20222;-73
2023/09/16 11:45:23;;;;;;;5.55;2.50;;;21.30;99.90;;;;;;5011704;28;20644;-73
2023/09/16 11:48:11;;;;;;;4.43;3.00;;;21.40;99.90;;;;;;5020862;28;20737;-71
2023/09/16 11:51:00;;;;;;;4.97;2.63;;;21.20;99.90;;;;;;5090037;27;20222;-71
2023/09/16 11:53:50;;;;;;;7.47;2.80;;;21.20;99.90;;;;;;5077536;27;20355;-70
2023/09/16 11:56:43;;;;;;;3.25;2.95;;;21.30;99.90;;;;;;5012512;28;20218;-71
2023/09/16 11:59:34;;;;;;;5.78;2.58;;;21.30;99.90;;;;;;5008137;28;20226;-72
2023/09/16 12:02:23;;;;;;;3.88;2.70;;;21.40;99.90;;;;;;5083583;27;20435;-72
2023/09/16 12:05:14;;;;;;;6.03;2.63;;;21.50;99.90;;;;;;5092272;27;20222;-71
2023/09/16 12:08:03;;;;;;;5.13;2.97;;;21.50;99.90;;;;;;5046883;27;20234;-68
2023/09/16 12:10:53;;;;;;;5.97;2.78;;;21.50;99.90;;;;;;4993046;28;20494;-71
2023/09/16 12:13:43;;;;;;;5.43;2.60;;;21.50;99.90;;;;;;5084958;27;20237;-71
2023/09/16 12:16:32;;;;;;;4.28;3.00;;;21.50;99.90;;;;;;5013759;28;21029;-70
2023/09/16 12:19:25;;;;;;;4.07;2.72;;;21.40;99.90;;;;;;5074023;27;20226;-71
2023/09/16 12:22:14;;;;;;;4.22;2.78;;;21.40;99.90;;;;;;5008289;28;20286;-69
2023/09/16 12:25:03;;;;;;;3.15;2.60;;;21.40;99.90;;;;;;5001111;28;21092;-71
2023/09/16 12:27:52;;;;;;;4.80;2.80;;;21.30;99.90;;;;;;5008058;28;20680;-68
2023/09/16 12:30:48;;;;;;;4.82;2.85;;;21.50;99.90;;;;;;5006852;28;20226;-70
2023/09/16 12:33:42;;;;;;;5.70;2.63;;;21.40;99.90;;;;;;5069741;27;20279;-70
2023/09/16 12:36:31;;;;;;;8.90;3.05;;;21.60;99.90;;;;;;5008378;28;20691;-70
2023/09/16 12:39:25;;;;;;;9.27;2.20;;;21.60;99.90;;;;;;5008667;27;21032;-72
2023/09/16 12:42:14;;;;;;;4.68;3.05;;;21.70;99.90;;;;;;5064140;27;20694;-71
2023/09/16 12:45:06;;;;;;;7.53;2.70;;;21.60;99.90;;;;;;4991109;28;20281;-72
2023/09/16 12:47:57;;;;;;;3.65;2.70;;;21.50;99.90;;;;;;5004033;27;20233;-72
2023/09/16 12:50:47;;;;;;;4.95;3.05;;;21.60;99.90;;;;;;5075993;27;20233;-71
2023/09/16 12:53:36;;;;;;;3.50;2.72;;;21.70;99.90;;;;;;4988955;28;20233;-73
2023/09/16 12:56:25;;;;;;;5.53;2.80;;;21.80;99.90;;;;;;4992668;28;20268;-73
2023/09/16 12:59:14;;;;;;;4.35;2.95;;;21.70;99.90;;;;;;4992695;28;20230;-72
2023/09/16 13:02:04;;;;;;;7.03;3.80;;;21.70;99.90;;;;;;4995013;28;20612;-72
2023/09/16 13:05:15;;;;;;;4.45;2.65;;;21.70;99.90;;;;;;5004465;28;20229;-69
2023/09/16 13:08:04;;;;;;;4.65;2.90;;;21.80;99.90;;;;;;4994192;27;20226;-71
2023/09/16 13:10:54;;;;;;;6.18;3.30;;;21.80;99.90;;;;;;5032355;28;20573;-71
2023/09/16 13:13:43;;;;;;;3.80;2.50;;;21.70;99.90;;;;;;5000984;28;20918;-69
2023/09/16 13:16:35;;;;;;;3.47;2.70;;;21.60;99.90;;;;;;5069774;27;20228;-71
2023/09/16 13:19:25;;;;;;;6.40;2.80;;;21.80;99.90;;;;;;5000191;27;20225;-71
2023/09/16 13:22:17;;;;;;;6.13;2.53;;;21.70;99.90;;;;;;4989137;28;20222;-71
2023/09/16 13:25:32;;;;;;;7.45;2.80;;;21.80;99.90;;;;;;4994955;28;20222;-69
2023/09/16 13:28:23;;;;;;;5.28;3.00;;;21.80;99.90;;;;;;5001220;28;20248;-70
2023/09/16 13:31:12;;;;;;;4.88;2.50;;;21.80;99.90;;;;;;5003333;27;20612;-71
2023/09/16 13:34:03;;;;;;;3.40;2.55;;;21.90;99.90;;;;;;5106933;27;20349;-70
2023/09/16 13:36:52;;;;;;;4.95;2.95;;;21.90;99.90;;;;;;5121649;27;20221;-70
2023/09/16 13:39:44;;;;;;;5.53;3.10;;;21.80;99.90;;;;;;5113341;27;20705;-71
2023/09/16 13:42:33;;;;;;;4.28;2.83;;;21.80;99.90;;;;;;5107195;27;20225;-70
2023/09/16 13:45:23;;;;;;;3.55;2.58;;;21.80;99.90;;;;;;5028692;27;20312;-72
2023/09/16 13:48:13;;;;;;;4.68;2.67;;;21.80;99.90;;;;;;5093896;27;20250;-71
2023/09/16 13:51:03;;;;;;;3.63;2.92;;;21.90;99.90;;;;;;5053519;27;20236;-71
2023/09/16 13:53:52;;;;;;;6.43;2.83;;;21.90;99.90;;;;;;5036050;28;20645;-71
2023/09/16 13:56:43;;;;;;;4.97;3.42;;;21.90;99.90;;;;;;5009230;28;20222;-71
2023/09/16 13:59:32;;;;;;;5.72;2.80;;;21.80;99.90;;;;;;5005796;28;20222;-69
2023/09/16 14:02:21;;;;;;;5.80;3.47;;;22.00;99.90;;;;;;5007540;28;20242;-70
2023/09/16 14:05:10;;;;;;;4.95;2.88;;;22.00;99.90;;;;;;5009553;28;20225;-71
2023/09/16 14:07:59;;;;;;;5.68;2.67;;;22.00;99.90;;;;;;5005796;28;20389;-71
2023/09/16 14:10:48;;;;;;;6.95;3.17;;;22.00;99.90;;;;;;4987604;28;20549;-70
2023/09/16 14:13:40;;;;;;;3.72;2.88;;;22.00;99.90;;;;;;5011349;28;20225;-72
2023/09/16 14:16:30;;;;;;;5.15;2.90;;;22.00;99.90;;;;;;5003642;28;20222;-71
2023/09/16 14:19:20;;;;;;;5.25;3.50;;;22.00;99.90;;;;;;5011140;28;20660;-69
2023/09/16 14:22:10;;;;;;;5.13;3.05;;;21.90;99.90;;;;;;5065251;28;21025;-71
2023/09/16 14:24:59;;;;;;;5.13;3.17;;;22.00;99.90;;;;;;5046754;27;20309;-70
2023/09/16 14:27:48;;;;;;;6.57;3.83;;;22.00;99.90;;;;;;5004016;28;20226;-70
2023/09/16 14:30:38;;;;;;;6.60;3.10;;;22.00;99.90;;;;;;5014450;28;20244;-71
2023/09/16 14:33:27;;;;;;;4.22;3.38;;;22.00;99.90;;;;;;5012461;28;20367;-71
2023/09/16 14:36:16;;;;;;;4.10;3.30;;;22.00;99.90;;;;;;5000410;28;20221;-69
2023/09/16 14:39:05;;;;;;;6.32;3.08;;;22.00;99.90;;;;;;5038733;28;20363;-71
2023/09/16 14:41:54;;;;;;;3.85;2.90;;;22.00;99.90;;;;;;5011368;28;20225;-71
2023/09/16 14:44:42;;;;;;;4.85;2.90;;;22.00;99.90;;;;;;4994862;28;20246;-72